sensor_id;sensor_type;location;lat;lon;timestamp;pressure;altitude;pressure_sealevel;temperature;humidity
72118;BME280;59992;47.490;8.736;2022-08-19T00:01:38;96253.69;;;17.67;91.73
72118;BME280;59992;47.490;8.736;2022-08-19T00:04:31;96258.31;;;17.62;91.68
72118;BME280;59992;47.490;8.736;2022-08-19T00:07:24;96259.20;;;17.59;90.38
72118;BME280;59992;47.490;8.736;2022-08-19T00:10:17;96264.54;;;17.57;90.91
72118;BME280;59992;47.490;8.736;2022-08-19T00:13:08;96260.42;;;17.55;92.67
72118;BME280;59992;47.490;8.736;2022-08-19T00:15:59;96258.52;;;17.59;90.83
72118;BME280;59992;47.490;8.736;2022-08-19T00:18:50;96262.10;;;17.63;90.90
72118;BME280;59992;47.490;8.736;2022-08-19T00:21:40;96264.91;;;17.65;90.33
72118;BME280;59992;47.490;8.736;2022-08-19T00:24:32;96275.41;;;17.61;91.48
72118;BME280;59992;47.490;8.736;2022-08-19T00:27:22;96276.47;;;17.61;92.81
72118;BME280;59992;47.490;8.736;2022-08-19T00:30:14;96272.65;;;17.57;91.42
72118;BME280;59992;47.490;8.736;2022-08-19T00:33:04;96281.45;;;17.61;92.26
72118;BME280;59992;47.490;8.736;2022-08-19T00:35:57;96283.92;;;17.61;90.91
72118;BME280;59992;47.490;8.736;2022-08-19T00:38:48;96283.88;;;17.59;90.27
72118;BME280;59992;47.490;8.736;2022-08-19T00:41:41;96275.04;;;17.60;91.61
72118;BME280;59992;47.490;8.736;2022-08-19T00:44:32;96275.80;;;17.61;91.47
72118;BME280;59992;47.490;8.736;2022-08-19T00:47:23;96276.67;;;17.63;90.27
72118;BME280;59992;47.490;8.736;2022-08-19T00:50:16;96278.30;;;17.65;90.37
72118;BME280;59992;47.490;8.736;2022-08-19T00:53:08;96273.52;;;17.67;90.67
72118;BME280;59992;47.490;8.736;2022-08-19T00:56:00;96269.59;;;17.68;89.43
72118;BME280;59992;47.490;8.736;2022-08-19T00:58:56;96269.14;;;17.72;88.92
72118;BME280;59992;47.490;8.736;2022-08-19T01:01:47;96265.33;;;17.75;90.76
72118;BME280;59992;47.490;8.736;2022-08-19T01:04:38;96264.98;;;17.73;90.48
72118;BME280;59992;47.490;8.736;2022-08-19T01:07:28;96267.08;;;17.71;90.88
72118;BME280;59992;47.490;8.736;2022-08-19T01:10:23;96265.58;;;17.71;91.13
72118;BME280;59992;47.490;8.736;2022-08-19T01:13:22;96266.64;;;17.74;90.60
72118;BME280;59992;47.490;8.736;2022-08-19T01:16:14;96257.97;;;17.71;91.58
72118;BME280;59992;47.490;8.736;2022-08-19T01:19:12;96250.17;;;17.67;91.09
72118;BME280;59992;47.490;8.736;2022-08-19T01:22:11;96246.64;;;17.63;91.27
72118;BME280;59992;47.490;8.736;2022-08-19T01:25:03;96247.77;;;17.61;91.59
72118;BME280;59992;47.490;8.736;2022-08-19T01:27:53;96246.77;;;17.57;91.96
72118;BME280;59992;47.490;8.736;2022-08-19T01:30:45;96249.27;;;17.54;92.17
72118;BME280;59992;47.490;8.736;2022-08-19T01:33:35;96252.75;;;17.52;92.16
72118;BME280;59992;47.490;8.736;2022-08-19T01:36:30;96251.65;;;17.50;92.45
72118;BME280;59992;47.490;8.736;2022-08-19T01:39:23;96255.66;;;17.49;92.65
72118;BME280;59992;47.490;8.736;2022-08-19T01:42:14;96252.74;;;17.48;93.13
72118;BME280;59992;47.490;8.736;2022-08-19T01:45:07;96254.66;;;17.48;92.11
72118;BME280;59992;47.490;8.736;2022-08-19T01:47:58;96257.86;;;17.50;92.05
72118;BME280;59992;47.490;8.736;2022-08-19T01:50:49;96256.11;;;17.49;92.32
72118;BME280;59992;47.490;8.736;2022-08-19T01:53:40;96253.25;;;17.50;92.76
72118;BME280;59992;47.490;8.736;2022-08-19T01:56:31;96245.36;;;17.54;90.90
72118;BME280;59992;47.490;8.736;2022-08-19T01:59:23;96238.90;;;17.60;90.03
72118;BME280;59992;47.490;8.736;2022-08-19T02:02:14;96234.28;;;17.61;91.83
72118;BME280;59992;47.490;8.736;2022-08-19T02:05:05;96236.80;;;17.57;92.35
72118;BME280;59992;47.490;8.736;2022-08-19T02:07:58;96231.67;;;17.54;92.13
72118;BME280;59992;47.490;8.736;2022-08-19T02:10:48;96231.67;;;17.53;92.83
72118;BME280;59992;47.490;8.736;2022-08-19T02:13:40;96233.41;;;17.54;91.81
72118;BME280;59992;47.490;8.736;2022-08-19T02:16:31;96230.65;;;17.55;93.40
72118;BME280;59992;47.490;8.736;2022-08-19T02:19:21;96227.05;;;17.58;92.33
72118;BME280;59992;47.490;8.736;2022-08-19T02:22:12;96233.70;;;17.60;93.28
72118;BME280;59992;47.490;8.736;2022-08-19T02:25:04;96229.27;;;17.59;93.00
72118;BME280;59992;47.490;8.736;2022-08-19T02:27:55;96227.13;;;17.59;92.01
72118;BME280;59992;47.490;8.736;2022-08-19T02:30:46;96226.81;;;17.59;92.13
72118;BME280;59992;47.490;8.736;2022-08-19T02:33:37;96231.02;;;17.60;92.45
72118;BME280;59992;47.490;8.736;2022-08-19T02:36:28;96240.73;;;17.61;91.49
72118;BME280;59992;47.490;8.736;2022-08-19T02:39:19;96244.96;;;17.59;92.06
72118;BME280;59992;47.490;8.736;2022-08-19T02:42:10;96240.27;;;17.56;92.41
72118;BME280;59992;47.490;8.736;2022-08-19T02:45:02;96241.16;;;17.54;92.61
72118;BME280;59992;47.490;8.736;2022-08-19T02:47:54;96246.09;;;17.56;92.57
72118;BME280;59992;47.490;8.736;2022-08-19T02:50:46;96248.25;;;17.55;92.57
72118;BME280;59992;47.490;8.736;2022-08-19T02:53:40;96245.39;;;17.57;92.26
72118;BME280;59992;47.490;8.736;2022-08-19T02:56:32;96245.61;;;17.57;92.26
72118;BME280;59992;47.490;8.736;2022-08-19T02:59:24;96239.45;;;17.59;93.04
72118;BME280;59992;47.490;8.736;2022-08-19T03:02:15;96235.83;;;17.60;92.35
72118;BME280;59992;47.490;8.736;2022-08-19T03:05:08;96232.38;;;17.60;92.28
72118;BME280;59992;47.490;8.736;2022-08-19T03:07:59;96236.95;;;17.61;92.84
72118;BME280;59992;47.490;8.736;2022-08-19T03:10:50;96240.69;;;17.62;91.70
72118;BME280;59992;47.490;8.736;2022-08-19T03:13:42;96240.86;;;17.62;92.40
72118;BME280;59992;47.490;8.736;2022-08-19T03:16:41;96238.51;;;17.61;92.19
72118;BME280;59992;47.490;8.736;2022-08-19T03:19:33;96241.23;;;17.62;91.90
72118;BME280;59992;47.490;8.736;2022-08-19T03:22:24;96247.74;;;17.62;92.35
72118;BME280;59992;47.490;8.736;2022-08-19T03:25:15;96248.69;;;17.61;92.66
72118;BME280;59992;47.490;8.736;2022-08-19T03:28:06;96249.02;;;17.59;91.72
72118;BME280;59992;47.490;8.736;2022-08-19T03:31:00;96248.04;;;17.59;91.65
72118;BME280;59992;47.490;8.736;2022-08-19T03:33:51;96249.38;;;17.57;91.86
72118;BME280;59992;47.490;8.736;2022-08-19T03:36:42;96250.23;;;17.52;92.16
72118;BME280;59992;47.490;8.736;2022-08-19T03:39:35;96247.85;;;17.48;92.08
72118;BME280;59992;47.490;8.736;2022-08-19T03:42:27;96245.88;;;17.46;93.23
72118;BME280;59992;47.490;8.736;2022-08-19T03:45:18;96244.86;;;17.47;93.49
72118;BME280;59992;47.490;8.736;2022-08-19T03:48:08;96246.09;;;17.47;93.40
72118;BME280;59992;47.490;8.736;2022-08-19T03:51:00;96239.14;;;17.45;92.76
72118;BME280;59992;47.490;8.736;2022-08-19T03:53:51;96233.86;;;17.42;93.24
72118;BME280;59992;47.490;8.736;2022-08-19T03:56:42;96229.54;;;17.39;93.32
72118;BME280;59992;47.490;8.736;2022-08-19T03:59:35;96228.60;;;17.37;92.85
72118;BME280;59992;47.490;8.736;2022-08-19T04:02:27;96235.81;;;17.36;93.81
72118;BME280;59992;47.490;8.736;2022-08-19T04:05:17;96235.56;;;17.37;93.15
72118;BME280;59992;47.490;8.736;2022-08-19T04:08:08;96237.14;;;17.38;93.10
72118;BME280;59992;47.490;8.736;2022-08-19T04:10:58;96236.31;;;17.38;94.25
72118;BME280;59992;47.490;8.736;2022-08-19T04:13:50;96234.72;;;17.41;94.63
72118;BME280;59992;47.490;8.736;2022-08-19T04:16:42;96231.45;;;17.44;93.78
72118;BME280;59992;47.490;8.736;2022-08-19T04:19:34;96226.30;;;17.45;93.87
72118;BME280;59992;47.490;8.736;2022-08-19T04:22:25;96227.56;;;17.47;93.68
72118;BME280;59992;47.490;8.736;2022-08-19T04:25:16;96227.48;;;17.48;93.90
72118;BME280;59992;47.490;8.736;2022-08-19T04:28:07;96232.84;;;17.48;94.02
72118;BME280;59992;47.490;8.736;2022-08-19T04:30:59;96239.79;;;17.50;94.00
72118;BME280;59992;47.490;8.736;2022-08-19T04:33:49;96246.20;;;17.51;93.70
72118;BME280;59992;47.490;8.736;2022-08-19T04:36:42;96257.19;;;17.52;93.85
72118;BME280;59992;47.490;8.736;2022-08-19T04:39:33;96260.02;;;17.53;93.78
72118;BME280;59992;47.490;8.736;2022-08-19T04:42:42;96258.47;;;17.54;93.85
72118;BME280;59992;47.490;8.736;2022-08-19T04:45:33;96254.00;;;17.55;93.77
72118;BME280;59992;47.490;8.736;2022-08-19T04:48:24;96254.36;;;17.57;93.98
72118;BME280;59992;47.490;8.736;2022-08-19T04:51:16;96248.77;;;17.57;93.33
72118;BME280;59992;47.490;8.736;2022-08-19T04:54:06;96244.09;;;17.53;93.20
72118;BME280;59992;47.490;8.736;2022-08-19T04:56:57;96255.92;;;17.59;92.96
72118;BME280;59992;47.490;8.736;2022-08-19T04:59:48;96266.92;;;17.60;92.83
72118;BME280;59992;47.490;8.736;2022-08-19T05:02:39;96276.90;;;17.59;93.27
72118;BME280;59992;47.490;8.736;2022-08-19T05:05:29;96272.31;;;17.59;93.26
72118;BME280;59992;47.490;8.736;2022-08-19T05:08:22;96281.02;;;17.60;92.69
72118;BME280;59992;47.490;8.736;2022-08-19T05:11:15;96283.80;;;17.59;93.18
72118;BME280;59992;47.490;8.736;2022-08-19T05:14:08;96283.57;;;17.59;93.16
72118;BME280;59992;47.490;8.736;2022-08-19T05:17:01;96287.16;;;17.59;93.91
72118;BME280;59992;47.490;8.736;2022-08-19T05:19:52;96287.46;;;17.59;93.00
72118;BME280;59992;47.490;8.736;2022-08-19T05:23:00;96292.52;;;17.59;92.70
72118;BME280;59992;47.490;8.736;2022-08-19T05:25:52;96295.01;;;17.58;93.15
72118;BME280;59992;47.490;8.736;2022-08-19T05:28:42;96298.63;;;17.56;92.64
72118;BME280;59992;47.490;8.736;2022-08-19T05:31:33;96303.10;;;17.55;93.81
72118;BME280;59992;47.490;8.736;2022-08-19T05:34:25;96303.63;;;17.51;93.55
72118;BME280;59992;47.490;8.736;2022-08-19T05:37:16;96316.48;;;17.55;93.25
72118;BME280;59992;47.490;8.736;2022-08-19T05:40:09;96309.39;;;17.50;93.47
72118;BME280;59992;47.490;8.736;2022-08-19T05:43:00;96317.25;;;17.55;94.11
72118;BME280;59992;47.490;8.736;2022-08-19T05:45:51;96315.39;;;17.56;93.49
72118;BME280;59992;47.490;8.736;2022-08-19T05:48:41;96317.55;;;17.56;93.40
72118;BME280;59992;47.490;8.736;2022-08-19T05:51:32;96315.60;;;17.58;93.90
72118;BME280;59992;47.490;8.736;2022-08-19T05:54:24;96311.14;;;17.58;93.75
72118;BME280;59992;47.490;8.736;2022-08-19T05:57:15;96311.75;;;17.59;93.55
72118;BME280;59992;47.490;8.736;2022-08-19T06:00:08;96304.57;;;17.62;93.54
72118;BME280;59992;47.490;8.736;2022-08-19T06:03:00;96306.84;;;17.64;93.54
72118;BME280;59992;47.490;8.736;2022-08-19T06:05:52;96304.79;;;17.66;93.67
72118;BME280;59992;47.490;8.736;2022-08-19T06:08:43;96303.64;;;17.67;93.00
72118;BME280;59992;47.490;8.736;2022-08-19T06:11:41;96305.47;;;17.71;92.68
72118;BME280;59992;47.490;8.736;2022-08-19T06:14:37;96309.61;;;17.75;92.66
72118;BME280;59992;47.490;8.736;2022-08-19T06:17:27;96308.92;;;17.78;92.54
72118;BME280;59992;47.490;8.736;2022-08-19T06:20:19;96309.56;;;17.81;92.26
72118;BME280;59992;47.490;8.736;2022-08-19T06:23:09;96314.10;;;17.85;92.57
72118;BME280;59992;47.490;8.736;2022-08-19T06:26:00;96315.73;;;17.87;92.09
72118;BME280;59992;47.490;8.736;2022-08-19T06:28:51;96312.83;;;17.86;91.54
72118;BME280;59992;47.490;8.736;2022-08-19T06:31:44;96309.53;;;17.83;92.06
72118;BME280;59992;47.490;8.736;2022-08-19T06:34:35;96313.98;;;17.87;92.30
72118;BME280;59992;47.490;8.736;2022-08-19T06:37:26;96312.61;;;17.89;92.43
72118;BME280;59992;47.490;8.736;2022-08-19T06:40:17;96319.30;;;17.92;92.33
72118;BME280;59992;47.490;8.736;2022-08-19T06:43:07;96323.09;;;17.95;92.17
72118;BME280;59992;47.490;8.736;2022-08-19T06:45:58;96326.76;;;17.95;92.06
72118;BME280;59992;47.490;8.736;2022-08-19T06:48:50;96323.96;;;17.97;91.79
72118;BME280;59992;47.490;8.736;2022-08-19T06:51:44;96324.59;;;17.96;91.62
72118;BME280;59992;47.490;8.736;2022-08-19T06:54:36;96328.72;;;17.96;91.51
72118;BME280;59992;47.490;8.736;2022-08-19T06:57:28;96331.45;;;17.98;91.16
72118;BME280;59992;47.490;8.736;2022-08-19T07:00:22;96329.50;;;17.96;91.29
72118;BME280;59992;47.490;8.736;2022-08-19T07:03:12;96332.13;;;17.94;91.46
72118;BME280;59992;47.490;8.736;2022-08-19T07:06:07;96328.73;;;17.95;91.41
72118;BME280;59992;47.490;8.736;2022-08-19T07:09:17;96326.52;;;17.96;91.76
72118;BME280;59992;47.490;8.736;2022-08-19T07:12:10;96317.77;;;17.93;91.56
72118;BME280;59992;47.490;8.736;2022-08-19T07:15:01;96326.23;;;17.98;92.06
72118;BME280;59992;47.490;8.736;2022-08-19T07:17:51;96327.05;;;18.00;92.23
72118;BME280;59992;47.490;8.736;2022-08-19T07:20:42;96332.86;;;18.04;92.05
72118;BME280;59992;47.490;8.736;2022-08-19T07:23:32;96336.45;;;18.09;91.97
72118;BME280;59992;47.490;8.736;2022-08-19T07:26:26;96342.54;;;18.12;91.84
72118;BME280;59992;47.490;8.736;2022-08-19T07:29:18;96343.71;;;18.10;91.54
72118;BME280;59992;47.490;8.736;2022-08-19T07:32:12;96346.84;;;18.07;91.76
72118;BME280;59992;47.490;8.736;2022-08-19T07:35:03;96348.70;;;18.05;92.00
72118;BME280;59992;47.490;8.736;2022-08-19T07:37:55;96349.86;;;18.05;91.55
72118;BME280;59992;47.490;8.736;2022-08-19T07:40:46;96353.82;;;18.03;92.08
72118;BME280;59992;47.490;8.736;2022-08-19T07:43:37;96351.92;;;18.02;91.94
72118;BME280;59992;47.490;8.736;2022-08-19T07:46:28;96356.92;;;18.00;91.56
72118;BME280;59992;47.490;8.736;2022-08-19T07:49:20;96358.22;;;18.01;91.64
72118;BME280;59992;47.490;8.736;2022-08-19T07:52:11;96358.40;;;18.00;92.05
72118;BME280;59992;47.490;8.736;2022-08-19T07:55:02;96359.03;;;17.94;91.58
72118;BME280;59992;47.490;8.736;2022-08-19T07:57:54;96366.00;;;17.95;91.89
72118;BME280;59992;47.490;8.736;2022-08-19T08:00:46;96369.83;;;17.95;91.85
72118;BME280;59992;47.490;8.736;2022-08-19T08:03:37;96371.73;;;17.95;91.81
72118;BME280;59992;47.490;8.736;2022-08-19T08:06:46;96378.17;;;17.95;92.32
72118;BME280;59992;47.490;8.736;2022-08-19T08:09:54;96384.48;;;17.94;92.46
72118;BME280;59992;47.490;8.736;2022-08-19T08:12:45;96387.85;;;17.94;93.07
72118;BME280;59992;47.490;8.736;2022-08-19T08:15:36;96385.86;;;17.97;92.49
72118;BME280;59992;47.490;8.736;2022-08-19T08:18:28;96392.85;;;17.97;92.54
72118;BME280;59992;47.490;8.736;2022-08-19T08:21:19;96393.27;;;17.96;92.22
72118;BME280;59992;47.490;8.736;2022-08-19T08:24:10;96398.50;;;17.94;91.86
72118;BME280;59992;47.490;8.736;2022-08-19T08:27:02;96400.35;;;17.93;92.13
72118;BME280;59992;47.490;8.736;2022-08-19T08:29:53;96406.50;;;17.92;91.93
72118;BME280;59992;47.490;8.736;2022-08-19T08:32:44;96405.73;;;17.89;92.02
72118;BME280;59992;47.490;8.736;2022-08-19T08:35:35;96413.05;;;17.86;92.48
72118;BME280;59992;47.490;8.736;2022-08-19T08:38:26;96415.74;;;17.86;92.13
72118;BME280;59992;47.490;8.736;2022-08-19T08:41:28;96423.86;;;17.86;92.71
72118;BME280;59992;47.490;8.736;2022-08-19T08:44:23;96426.71;;;17.86;92.63
72118;BME280;59992;47.490;8.736;2022-08-19T08:47:20;96429.77;;;17.86;93.04
72118;BME280;59992;47.490;8.736;2022-08-19T08:50:15;96429.55;;;17.89;92.62
72118;BME280;59992;47.490;8.736;2022-08-19T08:53:09;96433.51;;;17.87;91.98
72118;BME280;59992;47.490;8.736;2022-08-19T08:56:04;96434.44;;;17.86;92.34
72118;BME280;59992;47.490;8.736;2022-08-19T08:59:00;96437.95;;;17.87;91.93
72118;BME280;59992;47.490;8.736;2022-08-19T09:01:53;96445.98;;;17.83;91.78
72118;BME280;59992;47.490;8.736;2022-08-19T09:04:45;96444.90;;;17.83;91.67
72118;BME280;59992;47.490;8.736;2022-08-19T09:07:42;96447.61;;;17.82;91.83
72118;BME280;59992;47.490;8.736;2022-08-19T09:10:39;96447.58;;;17.80;91.73
72118;BME280;59992;47.490;8.736;2022-08-19T09:13:36;96444.56;;;17.81;91.89
72118;BME280;59992;47.490;8.736;2022-08-19T09:16:31;96445.61;;;17.83;91.81
72118;BME280;59992;47.490;8.736;2022-08-19T09:19:23;96444.02;;;17.81;92.44
72118;BME280;59992;47.490;8.736;2022-08-19T09:22:13;96444.50;;;17.84;92.35
72118;BME280;59992;47.490;8.736;2022-08-19T09:25:07;96445.30;;;17.82;92.59
72118;BME280;59992;47.490;8.736;2022-08-19T09:27:58;96452.63;;;17.79;92.78
72118;BME280;59992;47.490;8.736;2022-08-19T09:30:52;96451.34;;;17.79;92.63
72118;BME280;59992;47.490;8.736;2022-08-19T09:33:43;96458.15;;;17.79;92.84
72118;BME280;59992;47.490;8.736;2022-08-19T09:36:33;96457.95;;;17.82;92.42
72118;BME280;59992;47.490;8.736;2022-08-19T09:39:25;96459.23;;;17.83;92.44
72118;BME280;59992;47.490;8.736;2022-08-19T09:42:16;96460.48;;;17.86;92.25
72118;BME280;59992;47.490;8.736;2022-08-19T09:45:08;96462.33;;;17.86;92.17
72118;BME280;59992;47.490;8.736;2022-08-19T09:47:58;96470.69;;;17.90;92.04
72118;BME280;59992;47.490;8.736;2022-08-19T09:50:49;96472.33;;;17.88;91.99
72118;BME280;59992;47.490;8.736;2022-08-19T09:53:40;96474.65;;;17.86;91.87
72118;BME280;59992;47.490;8.736;2022-08-19T09:56:31;96475.43;;;17.86;92.29
72118;BME280;59992;47.490;8.736;2022-08-19T09:59:23;96477.79;;;17.87;92.45
72118;BME280;59992;47.490;8.736;2022-08-19T10:02:13;96478.98;;;17.89;92.09
72118;BME280;59992;47.490;8.736;2022-08-19T10:05:04;96478.33;;;17.87;91.83
72118;BME280;59992;47.490;8.736;2022-08-19T10:08:12;96473.57;;;17.88;92.09
72118;BME280;59992;47.490;8.736;2022-08-19T10:11:04;96475.39;;;17.88;92.09
72118;BME280;59992;47.490;8.736;2022-08-19T10:13:55;96477.10;;;17.87;92.29
72118;BME280;59992;47.490;8.736;2022-08-19T10:16:46;96481.29;;;17.88;92.36
72118;BME280;59992;47.490;8.736;2022-08-19T10:19:36;96482.52;;;17.84;92.35
72118;BME280;59992;47.490;8.736;2022-08-19T10:22:27;96482.95;;;17.81;92.57
72118;BME280;59992;47.490;8.736;2022-08-19T10:25:18;96485.08;;;17.82;92.57
72118;BME280;59992;47.490;8.736;2022-08-19T10:28:09;96486.09;;;17.86;92.65
72118;BME280;59992;47.490;8.736;2022-08-19T10:31:05;96482.82;;;17.84;92.47
72118;BME280;59992;47.490;8.736;2022-08-19T10:33:56;96484.86;;;17.86;92.68
72118;BME280;59992;47.490;8.736;2022-08-19T10:36:47;96484.66;;;17.88;92.37
72118;BME280;59992;47.490;8.736;2022-08-19T10:39:38;96486.70;;;17.90;92.12
72118;BME280;59992;47.490;8.736;2022-08-19T10:42:28;96490.83;;;17.91;92.29
72118;BME280;59992;47.490;8.736;2022-08-19T10:45:20;96492.23;;;17.94;92.34
72118;BME280;59992;47.490;8.736;2022-08-19T10:48:13;96500.19;;;17.94;92.14
72118;BME280;59992;47.490;8.736;2022-08-19T10:51:04;96501.80;;;17.95;91.96
72118;BME280;59992;47.490;8.736;2022-08-19T10:54:13;96502.38;;;17.92;91.88
72118;BME280;59992;47.490;8.736;2022-08-19T10:57:04;96504.36;;;17.92;91.92
72118;BME280;59992;47.490;8.736;2022-08-19T10:59:55;96503.47;;;17.95;92.24
72118;BME280;59992;47.490;8.736;2022-08-19T11:02:46;96497.31;;;17.97;91.98
72118;BME280;59992;47.490;8.736;2022-08-19T11:05:37;96500.02;;;17.95;91.32
72118;BME280;59992;47.490;8.736;2022-08-19T11:08:28;96494.43;;;17.95;91.72
72118;BME280;59992;47.490;8.736;2022-08-19T11:11:20;96492.46;;;17.88;91.89
72118;BME280;59992;47.490;8.736;2022-08-19T11:14:12;96503.70;;;17.91;92.15
72118;BME280;59992;47.490;8.736;2022-08-19T11:17:06;96511.52;;;17.90;91.91
72118;BME280;59992;47.490;8.736;2022-08-19T11:19:57;96517.20;;;17.94;91.51
72118;BME280;59992;47.490;8.736;2022-08-19T11:22:50;96516.75;;;17.94;91.66
72118;BME280;59992;47.490;8.736;2022-08-19T11:25:41;96520.23;;;17.96;92.02
72118;BME280;59992;47.490;8.736;2022-08-19T11:28:32;96522.70;;;17.96;91.13
72118;BME280;59992;47.490;8.736;2022-08-19T11:31:24;96524.55;;;17.94;91.49
72118;BME280;59992;47.490;8.736;2022-08-19T11:34:18;96528.46;;;17.95;91.93
72118;BME280;59992;47.490;8.736;2022-08-19T11:37:10;96533.70;;;17.93;91.57
72118;BME280;59992;47.490;8.736;2022-08-19T11:40:04;96533.20;;;17.95;91.68
72118;BME280;59992;47.490;8.736;2022-08-19T11:42:55;96534.89;;;17.95;91.44
72118;BME280;59992;47.490;8.736;2022-08-19T11:45:45;96538.94;;;17.96;91.60
72118;BME280;59992;47.490;8.736;2022-08-19T11:48:38;96549.09;;;17.93;91.88
72118;BME280;59992;47.490;8.736;2022-08-19T11:51:30;96553.02;;;17.93;91.74
72118;BME280;59992;47.490;8.736;2022-08-19T11:54:21;96557.00;;;17.93;91.40
72118;BME280;59992;47.490;8.736;2022-08-19T11:57:11;96546.83;;;17.87;91.50
72118;BME280;59992;47.490;8.736;2022-08-19T12:00:05;96557.95;;;17.95;91.61
72118;BME280;59992;47.490;8.736;2022-08-19T12:02:56;96555.25;;;17.97;91.55
72118;BME280;59992;47.490;8.736;2022-08-19T12:05:47;96558.39;;;18.02;92.02
72118;BME280;59992;47.490;8.736;2022-08-19T12:08:38;96554.66;;;18.04;92.01
72118;BME280;59992;47.490;8.736;2022-08-19T12:11:29;96554.75;;;18.09;91.77
72118;BME280;59992;47.490;8.736;2022-08-19T12:14:19;96549.54;;;18.14;91.33
72118;BME280;59992;47.490;8.736;2022-08-19T12:17:10;96551.83;;;18.14;91.34
72118;BME280;59992;47.490;8.736;2022-08-19T12:20:02;96548.43;;;18.15;91.62
72118;BME280;59992;47.490;8.736;2022-08-19T12:22:53;96551.38;;;18.18;91.83
72118;BME280;59992;47.490;8.736;2022-08-19T12:25:48;96541.48;;;18.19;92.00
72118;BME280;59992;47.490;8.736;2022-08-19T12:28:40;96546.22;;;18.28;91.93
72118;BME280;59992;47.490;8.736;2022-08-19T12:31:31;96547.27;;;18.33;91.43
72118;BME280;59992;47.490;8.736;2022-08-19T12:34:22;96546.31;;;18.36;91.52
72118;BME280;59992;47.490;8.736;2022-08-19T12:37:14;96546.38;;;18.41;91.77
72118;BME280;59992;47.490;8.736;2022-08-19T12:40:07;96542.94;;;18.39;92.04
72118;BME280;59992;47.490;8.736;2022-08-19T12:42:58;96539.30;;;18.38;91.81
72118;BME280;59992;47.490;8.736;2022-08-19T12:45:49;96538.98;;;18.44;92.06
72118;BME280;59992;47.490;8.736;2022-08-19T12:48:42;96542.11;;;18.49;91.76
72118;BME280;59992;47.490;8.736;2022-08-19T12:51:38;96541.22;;;18.52;91.59
72118;BME280;59992;47.490;8.736;2022-08-19T12:54:30;96542.33;;;18.58;91.69
72118;BME280;59992;47.490;8.736;2022-08-19T12:57:21;96539.64;;;18.62;91.81
72118;BME280;59992;47.490;8.736;2022-08-19T13:00:19;96540.86;;;18.67;91.31
72118;BME280;59992;47.490;8.736;2022-08-19T13:03:10;96544.08;;;18.67;90.59
72118;BME280;59992;47.490;8.736;2022-08-19T13:06:01;96545.23;;;18.66;91.37
72118;BME280;59992;47.490;8.736;2022-08-19T13:08:53;96544.38;;;18.67;91.14
72118;BME280;59992;47.490;8.736;2022-08-19T13:11:43;96542.39;;;18.70;90.89
72118;BME280;59992;47.490;8.736;2022-08-19T13:14:35;96538.20;;;18.69;90.96
72118;BME280;59992;47.490;8.736;2022-08-19T13:17:25;96533.90;;;18.69;90.99
72118;BME280;59992;47.490;8.736;2022-08-19T13:20:18;96543.05;;;18.76;90.60
72118;BME280;59992;47.490;8.736;2022-08-19T13:23:09;96546.37;;;18.79;90.93
72118;BME280;59992;47.490;8.736;2022-08-19T13:26:01;96547.77;;;18.78;90.41
72118;BME280;59992;47.490;8.736;2022-08-19T13:28:52;96547.76;;;18.79;91.45
72118;BME280;59992;47.490;8.736;2022-08-19T13:32:00;96548.91;;;18.83;91.48
72118;BME280;59992;47.490;8.736;2022-08-19T13:35:09;96553.27;;;18.80;90.79
72118;BME280;59992;47.490;8.736;2022-08-19T13:38:00;96554.63;;;18.84;90.39
72118;BME280;59992;47.490;8.736;2022-08-19T13:40:55;96556.73;;;18.87;91.05
72118;BME280;59992;47.490;8.736;2022-08-19T13:43:45;96554.37;;;18.94;91.31
72118;BME280;59992;47.490;8.736;2022-08-19T13:46:37;96557.73;;;18.99;89.51
72118;BME280;59992;47.490;8.736;2022-08-19T13:49:29;96560.67;;;19.09;89.72
72118;BME280;59992;47.490;8.736;2022-08-19T13:52:20;96562.30;;;19.11;89.35
72118;BME280;59992;47.490;8.736;2022-08-19T13:55:12;96562.50;;;19.13;90.14
72118;BME280;59992;47.490;8.736;2022-08-19T13:58:03;96563.48;;;19.06;89.13
72118;BME280;59992;47.490;8.736;2022-08-19T14:00:54;96565.64;;;19.10;89.74
72118;BME280;59992;47.490;8.736;2022-08-19T14:03:45;96568.48;;;19.14;89.85
72118;BME280;59992;47.490;8.736;2022-08-19T14:06:35;96568.61;;;19.18;89.53
72118;BME280;59992;47.490;8.736;2022-08-19T14:09:26;96573.12;;;19.19;89.60
72118;BME280;59992;47.490;8.736;2022-08-19T14:12:20;96571.29;;;19.22;89.55
72118;BME280;59992;47.490;8.736;2022-08-19T14:15:12;96566.79;;;19.09;88.50
72118;BME280;59992;47.490;8.736;2022-08-19T14:18:03;96572.78;;;19.13;89.52
72118;BME280;59992;47.490;8.736;2022-08-19T14:20:54;96573.09;;;19.13;89.95
72118;BME280;59992;47.490;8.736;2022-08-19T14:23:46;96575.35;;;19.08;89.86
72118;BME280;59992;47.490;8.736;2022-08-19T14:26:37;96574.27;;;19.08;89.92
72118;BME280;59992;47.490;8.736;2022-08-19T14:29:28;96576.89;;;19.04;89.44
72118;BME280;59992;47.490;8.736;2022-08-19T14:32:18;96584.45;;;19.03;89.44
72118;BME280;59992;47.490;8.736;2022-08-19T14:35:11;96583.31;;;19.06;89.40
72118;BME280;59992;47.490;8.736;2022-08-19T14:38:04;96583.41;;;19.08;89.38
72118;BME280;59992;47.490;8.736;2022-08-19T14:40:55;96585.64;;;19.11;89.84
72118;BME280;59992;47.490;8.736;2022-08-19T14:43:48;96586.79;;;19.12;89.72
72118;BME280;59992;47.490;8.736;2022-08-19T14:46:39;96584.70;;;19.16;89.68
72118;BME280;59992;47.490;8.736;2022-08-19T14:49:30;96586.54;;;19.24;89.23
72118;BME280;59992;47.490;8.736;2022-08-19T14:52:21;96588.90;;;19.29;89.16
72118;BME280;59992;47.490;8.736;2022-08-19T14:55:11;96587.59;;;19.33;88.78
72118;BME280;59992;47.490;8.736;2022-08-19T14:58:02;96589.60;;;19.24;87.97
72118;BME280;59992;47.490;8.736;2022-08-19T15:00:53;96587.96;;;19.25;88.69
72118;BME280;59992;47.490;8.736;2022-08-19T15:03:43;96587.80;;;19.26;89.16
72118;BME280;59992;47.490;8.736;2022-08-19T15:06:34;96592.61;;;19.24;88.67
72118;BME280;59992;47.490;8.736;2022-08-19T15:09:25;96590.91;;;19.28;89.35
72118;BME280;59992;47.490;8.736;2022-08-19T15:12:15;96586.89;;;19.25;88.96